MSC Maeva — H9TF — position and weather

sailwx.info

Track history (hours):
 
Tides and Currents Weather Stations Pressure Air Temp Water Temp Dewpoint Dewpoint Depression Visibility Wind Speed Wind Dir Waves Ship Positions

MSC Maeva

Last reported at 2014-Aug-02 06:31 UTC. Time now 2014-Aug-02 06:40 UTC.
Position N 01°17' E 104°12'.

Type: Ship (hazmat cat A). MMSI: 371851000.

Date/timePositionNaut miles runAvg speedWind from/ knotsBaromVisibWave heightAir tempDewpointWater temp
2014-Aug-02 06:31N 01°17' E 104°12'  
2014-Jul-29 01:17N 22°18' E 114°06'1210.9
2014-Jul-29 00:10N 22°23' E 113°54'4 7.1
2014-Jul-28 23:33N 22°27' E 113°53'1 1.0
2014-Jul-28 22:33N 22°28' E 113°53'0 0.0
2014-Jul-28 21:33N 22°28' E 113°53'0 0.0
2014-Jul-28 20:33N 22°28' E 113°53'0 0.0
2014-Jul-28 19:33N 22°28' E 113°53'0 0.0
2014-Jul-28 18:33N 22°28' E 113°53'0 0.0
2014-Jul-28 17:33N 22°28' E 113°53'0 0.0
2014-Jul-28 16:33N 22°28' E 113°53'0 0.0
2014-Jul-28 15:33N 22°28' E 113°53'0 0.0
2014-Jul-28 14:33N 22°28' E 113°53'0 0.0
2014-Jul-28 13:33N 22°28' E 113°53'0 0.0
2014-Jul-28 12:33N 22°28' E 113°53'0 0.0
2014-Jul-28 11:33N 22°28' E 113°53'0 0.0
2014-Jul-28 10:32N 22°28' E 113°53'0 0.0
2014-Jul-28 09:33N 22°28' E 113°53'0 0.0
2014-Jul-28 08:33N 22°28' E 113°53'0 0.0
2014-Jul-28 07:33N 22°28' E 113°53'0 0.0
2014-Jul-28 06:33N 22°28' E 113°53'0 0.0
2014-Jul-28 05:33N 22°28' E 113°53'0 0.0
2014-Jul-28 04:28N 22°28' E 113°53'0 0.0
2014-Jul-28 03:33N 22°28' E 113°53'0 0.0
2014-Jul-28 02:33N 22°28' E 113°53'1 0.9
2014-Jul-28 01:33N 22°27' E 113°53'9 6.8
2014-Jul-28 00:15N 22°21' E 113°59'67813.9
2014-Jul-25 23:33N 30°25' E 122°49'1717.2
2014-Jul-25 22:33N 30°31' E 122°30'9 9.1
2014-Jul-25 21:33N 30°32' E 122°20'1312.2
2014-Jul-25 20:31N 30°36' E 122°05'2 1.6
2014-Jul-25 19:33N 30°37' E 122°04'0 0.0
2014-Jul-25 18:33N 30°37' E 122°04'0 0.0
2014-Jul-25 17:33N 30°37' E 122°04'0 0.0
2014-Jul-25 16:33N 30°37' E 122°04'0 0.0
2014-Jul-25 15:33N 30°37' E 122°04'0 0.0
2014-Jul-25 14:31N 30°37' E 122°04'0 0.0
2014-Jul-25 13:33N 30°37' E 122°04'0 0.0
2014-Jul-25 12:33N 30°37' E 122°04'0 0.0
2014-Jul-25 11:32N 30°37' E 122°04'0 0.0
2014-Jul-25 10:33N 30°37' E 122°04'0 0.0
2014-Jul-25 09:31N 30°37' E 122°04'0 0.0
2014-Jul-25 08:33N 30°37' E 122°04'1 0.8
2014-Jul-25 07:33N 30°36' E 122°05'1110.9
2014-Jul-25 06:33N 30°34' E 122°17'5 4.8
2014-Jul-25 05:33N 30°33' E 122°22'1817.8
2014-Jul-25 04:33N 30°29' E 122°43'5 0.4
2014-Jul-24 16:14N 30°27' E 122°48'1217.3
2014-Jul-24 15:33N 30°30' E 122°35'1111.0
2014-Jul-24 14:33N 30°33' E 122°22'1 0.7
2014-Jul-24 13:33N 30°33' E 122°21'7 6.8
2014-Jul-24 12:33N 30°33' E 122°29'5 4.9
2014-Jul-24 11:33N 30°31' E 122°34'8 7.7
2014-Jul-24 10:33N 30°29' E 122°43'1110.5
2014-Jul-24 09:31N 30°22' E 122°53'1412.6
2014-Jul-24 08:23N 30°08' E 122°50'3211.2
2014-Jul-24 05:30N 29°41' E 122°28'1313.4
2014-Jul-24 04:33N 29°47' E 122°16'1111.5
2014-Jul-24 03:33N 29°55' E 122°06'4 3.6
2014-Jul-24 02:33N 29°54' E 122°02'0 0.1
2014-Jul-24 01:33N 29°54' E 122°02'0 0.0
2014-Jul-24 00:33N 29°54' E 122°02'0 0.1
2014-Jul-23 23:33N 29°54' E 122°02'0 0.1
2014-Jul-23 22:33N 29°54' E 122°02'0 0.0
2014-Jul-23 21:33N 29°54' E 122°02'0 0.1
2014-Jul-23 20:33N 29°54' E 122°02'0 0.1
2014-Jul-23 19:33N 29°54' E 122°02'0 0.0
2014-Jul-23 18:33N 29°54' E 122°02'0 0.0
2014-Jul-23 17:33N 29°54' E 122°02'0 0.0
2014-Jul-23 16:33N 29°54' E 122°02'0 0.0
2014-Jul-23 15:33N 29°54' E 122°02'0 0.0
2014-Jul-23 14:33N 29°54' E 122°02'0 0.0
2014-Jul-23 13:33N 29°54' E 122°02'0 0.0
2014-Jul-23 12:33N 29°54' E 122°02'0 0.0
2014-Jul-23 11:33N 29°54' E 122°02'0 0.0
2014-Jul-23 10:33N 29°54' E 122°02'0 0.0
2014-Jul-23 09:33N 29°54' E 122°02'0 0.0
2014-Jul-23 08:33N 29°54' E 122°02'0 0.0
2014-Jul-23 07:33N 29°54' E 122°02'0 0.0
2014-Jul-23 06:33N 29°54' E 122°02'  
Track history (hours):
 
Tides and Currents Weather Stations Pressure Air Temp Water Temp Dewpoint Dewpoint Depression Visibility Wind Speed Wind Dir Waves Ship Positions

MSC Maeva

Last reported at 2014-Aug-02 06:31 UTC. Time now 2014-Aug-02 06:40 UTC.
Position N 01°17' E 104°12'.

Type: Ship (hazmat cat A). MMSI: 371851000.

Date/timePositionNaut miles runAvg speedWind from/ knotsBaromVisibWave heightAir tempDewpointWater temp
2014-Aug-02 06:31N 01°17' E 104°12'  
2014-Jul-29 01:17N 22°18' E 114°06'1210.9
2014-Jul-29 00:10N 22°23' E 113°54'4 7.1
2014-Jul-28 23:33N 22°27' E 113°53'1 1.0
2014-Jul-28 22:33N 22°28' E 113°53'0 0.0
2014-Jul-28 21:33N 22°28' E 113°53'0 0.0
2014-Jul-28 20:33N 22°28' E 113°53'0 0.0
2014-Jul-28 19:33N 22°28' E 113°53'0 0.0
2014-Jul-28 18:33N 22°28' E 113°53'0 0.0
2014-Jul-28 17:33N 22°28' E 113°53'0 0.0
2014-Jul-28 16:33N 22°28' E 113°53'0 0.0
2014-Jul-28 15:33N 22°28' E 113°53'0 0.0
2014-Jul-28 14:33N 22°28' E 113°53'0 0.0
2014-Jul-28 13:33N 22°28' E 113°53'0 0.0
2014-Jul-28 12:33N 22°28' E 113°53'0 0.0
2014-Jul-28 11:33N 22°28' E 113°53'0 0.0
2014-Jul-28 10:32N 22°28' E 113°53'0 0.0
2014-Jul-28 09:33N 22°28' E 113°53'0 0.0
2014-Jul-28 08:33N 22°28' E 113°53'0 0.0
2014-Jul-28 07:33N 22°28' E 113°53'0 0.0
2014-Jul-28 06:33N 22°28' E 113°53'0 0.0
2014-Jul-28 05:33N 22°28' E 113°53'0 0.0
2014-Jul-28 04:28N 22°28' E 113°53'0 0.0
2014-Jul-28 03:33N 22°28' E 113°53'0 0.0
2014-Jul-28 02:33N 22°28' E 113°53'1 0.9
2014-Jul-28 01:33N 22°27' E 113°53'9 6.8
2014-Jul-28 00:15N 22°21' E 113°59'67813.9
2014-Jul-25 23:33N 30°25' E 122°49'1717.2
2014-Jul-25 22:33N 30°31' E 122°30'9 9.1
2014-Jul-25 21:33N 30°32' E 122°20'1312.2
2014-Jul-25 20:31N 30°36' E 122°05'2 1.6
2014-Jul-25 19:33N 30°37' E 122°04'0 0.0
2014-Jul-25 18:33N 30°37' E 122°04'0 0.0
2014-Jul-25 17:33N 30°37' E 122°04'0 0.0
2014-Jul-25 16:33N 30°37' E 122°04'0 0.0
2014-Jul-25 15:33N 30°37' E 122°04'0 0.0
2014-Jul-25 14:31N 30°37' E 122°04'0 0.0
2014-Jul-25 13:33N 30°37' E 122°04'0 0.0
2014-Jul-25 12:33N 30°37' E 122°04'0 0.0
2014-Jul-25 11:32N 30°37' E 122°04'0 0.0
2014-Jul-25 10:33N 30°37' E 122°04'0 0.0
2014-Jul-25 09:31N 30°37' E 122°04'0 0.0
2014-Jul-25 08:33N 30°37' E 122°04'1 0.8
2014-Jul-25 07:33N 30°36' E 122°05'1110.9
2014-Jul-25 06:33N 30°34' E 122°17'5 4.8
2014-Jul-25 05:33N 30°33' E 122°22'1817.8
2014-Jul-25 04:33N 30°29' E 122°43'5 0.4
2014-Jul-24 16:14N 30°27' E 122°48'1217.3
2014-Jul-24 15:33N 30°30' E 122°35'1111.0
2014-Jul-24 14:33N 30°33' E 122°22'1 0.7
2014-Jul-24 13:33N 30°33' E 122°21'7 6.8
2014-Jul-24 12:33N 30°33' E 122°29'5 4.9
2014-Jul-24 11:33N 30°31' E 122°34'8 7.7
2014-Jul-24 10:33N 30°29' E 122°43'1110.5
2014-Jul-24 09:31N 30°22' E 122°53'1412.6
2014-Jul-24 08:23N 30°08' E 122°50'3211.2
2014-Jul-24 05:30N 29°41' E 122°28'1313.4
2014-Jul-24 04:33N 29°47' E 122°16'1111.5
2014-Jul-24 03:33N 29°55' E 122°06'4 3.6
2014-Jul-24 02:33N 29°54' E 122°02'0 0.1
2014-Jul-24 01:33N 29°54' E 122°02'0 0.0
2014-Jul-24 00:33N 29°54' E 122°02'0 0.1
2014-Jul-23 23:33N 29°54' E 122°02'0 0.1
2014-Jul-23 22:33N 29°54' E 122°02'0 0.0
2014-Jul-23 21:33N 29°54' E 122°02'0 0.1
2014-Jul-23 20:33N 29°54' E 122°02'0 0.1
2014-Jul-23 19:33N 29°54' E 122°02'0 0.0
2014-Jul-23 18:33N 29°54' E 122°02'0 0.0
2014-Jul-23 17:33N 29°54' E 122°02'0 0.0
2014-Jul-23 16:33N 29°54' E 122°02'0 0.0
2014-Jul-23 15:33N 29°54' E 122°02'0 0.0
2014-Jul-23 14:33N 29°54' E 122°02'0 0.0
2014-Jul-23 13:33N 29°54' E 122°02'0 0.0
2014-Jul-23 12:33N 29°54' E 122°02'0 0.0
2014-Jul-23 11:33N 29°54' E 122°02'0 0.0
2014-Jul-23 10:33N 29°54' E 122°02'0 0.0
2014-Jul-23 09:33N 29°54' E 122°02'0 0.0
2014-Jul-23 08:33N 29°54' E 122°02'0 0.0
2014-Jul-23 07:33N 29°54' E 122°02'0 0.0
2014-Jul-23 06:33N 29°54' E 122°02'  

Dump ship's entire track history